createdAt,value
2018-02-19T00:01:59.203Z,74.64
2018-02-19T00:04:27.197Z,72.78
2018-02-19T00:06:54.814Z,73.01
2018-02-19T00:09:22.409Z,73.63
2018-02-19T00:11:50.018Z,73.42
2018-02-19T00:14:17.695Z,72.86
2018-02-19T00:16:45.287Z,73.69
2018-02-19T00:19:12.979Z,73.63
2018-02-19T00:21:40.596Z,74.18
2018-02-19T00:24:08.191Z,74.26
2018-02-19T00:26:36.071Z,74.28
2018-02-19T00:29:04.913Z,75.17
2018-02-19T00:31:32.522Z,74.19
2018-02-19T00:34:00.100Z,73.60
2018-02-19T00:36:27.748Z,74.75
2018-02-19T00:38:55.372Z,74.89
2018-02-19T00:41:22.973Z,75.40
2018-02-19T00:43:50.561Z,74.94
2018-02-19T00:46:18.205Z,75.54
2018-02-19T00:48:45.807Z,75.44
2018-02-19T00:51:13.463Z,75.29
2018-02-19T00:53:41.078Z,75.67
2018-02-19T00:56:08.753Z,75.39
2018-02-19T00:58:36.384Z,76.55
2018-02-19T01:01:04.010Z,76.88
2018-02-19T01:03:31.996Z,76.58
2018-02-19T01:06:04.052Z,76.52
2018-02-19T01:08:31.647Z,77.09
2018-02-19T01:10:59.253Z,77.17
2018-02-19T01:13:27.761Z,77.76
2018-02-19T01:15:55.362Z,77.57
2018-02-19T01:18:23.279Z,78.25
2018-02-19T01:20:50.864Z,78.39
2018-02-19T01:23:18.621Z,78.38
2018-02-19T01:25:46.656Z,79.01
2018-02-19T01:28:14.298Z,79.15
2018-02-19T01:30:41.885Z,79.16
2018-02-19T01:33:09.530Z,79.51
2018-02-19T01:35:37.888Z,80.38
2018-02-19T01:38:05.518Z,80.65
2018-02-19T01:40:33.655Z,80.62
2018-02-19T01:43:01.300Z,81.30
2018-02-19T01:45:28.932Z,81.35
2018-02-19T01:47:56.518Z,81.26
2018-02-19T01:50:24.152Z,81.58
2018-02-19T01:52:51.789Z,81.75
2018-02-19T01:55:19.898Z,81.92
2018-02-19T01:57:47.607Z,82.32
2018-02-19T02:00:15.262Z,82.33
2018-02-19T02:02:42.862Z,82.21
2018-02-19T02:05:10.766Z,82.03
2018-02-19T02:07:38.695Z,82.74
2018-02-19T02:10:07.225Z,82.71
2018-02-19T02:12:34.906Z,83.13
2018-02-19T02:15:02.549Z,83.41
2018-02-19T02:17:30.454Z,83.38
2018-02-19T02:19:58.116Z,83.23
2018-02-19T02:22:25.870Z,83.53
2018-02-19T02:24:53.457Z,83.65
2018-02-19T02:27:21.223Z,84.03
2018-02-19T02:29:48.892Z,83.54
2018-02-19T02:32:16.497Z,84.21
2018-02-19T02:34:44.105Z,84.13
2018-02-19T02:37:14.859Z,84.00
2018-02-19T02:39:42.475Z,84.27
2018-02-19T02:42:10.279Z,84.76
2018-02-19T02:44:37.966Z,84.63
2018-02-19T02:47:05.607Z,84.51
2018-02-19T02:49:33.971Z,84.74
2018-02-19T02:52:01.843Z,84.67
2018-02-19T02:54:29.537Z,85.02
2018-02-19T02:56:57.168Z,85.59
2018-02-19T02:59:24.873Z,85.93
2018-02-19T03:01:52.505Z,86.16
2018-02-19T03:04:20.242Z,85.87
2018-02-19T03:06:47.872Z,86.29
2018-02-19T03:09:18.997Z,86.36
2018-02-19T03:11:46.655Z,86.72
2018-02-19T03:14:14.873Z,86.94
2018-02-19T03:16:42.466Z,86.58
2018-02-19T03:19:10.397Z,86.59
2018-02-19T03:21:38.490Z,86.77
2018-02-19T03:24:06.224Z,86.53
2018-02-19T03:26:33.840Z,86.53
2018-02-19T03:29:01.496Z,86.84
2018-02-19T03:31:30.210Z,87.49
2018-02-19T03:33:57.841Z,87.65
2018-02-19T03:36:28.925Z,87.95
2018-02-19T03:38:56.566Z,87.80
2018-02-19T03:41:25.188Z,87.62
2018-02-19T03:43:52.921Z,87.71
2018-02-19T03:46:22.062Z,88.35
2018-02-19T03:48:49.755Z,88.47
2018-02-19T03:51:17.519Z,88.36
2018-02-19T03:53:45.110Z,88.53
2018-02-19T03:56:15.425Z,88.45
2018-02-19T03:58:49.010Z,88.62
2018-02-19T04:04:08.365Z,88.54
2018-02-19T04:06:36.009Z,88.42
2018-02-19T04:09:04.615Z,88.68
2018-02-19T04:11:32.211Z,88.80
2018-02-19T04:13:59.877Z,88.98
2018-02-19T04:16:28.202Z,89.26
2018-02-19T04:18:56.073Z,89.35
2018-02-19T04:21:26.038Z,89.24
2018-02-19T04:23:53.838Z,89.14
2018-02-19T04:26:21.441Z,89.38
2018-02-19T04:28:49.772Z,89.66
2018-02-19T04:31:18.268Z,89.71
2018-02-19T04:33:45.868Z,90.00
2018-02-19T04:36:13.936Z,90.23
2018-02-19T04:38:41.609Z,90.44
2018-02-19T04:41:10.843Z,90.36
2018-02-19T04:43:39.344Z,90.12
2018-02-19T04:49:17.363Z,90.94
2018-02-19T04:51:44.983Z,90.87
2018-02-19T04:54:12.674Z,90.62
2018-02-19T04:56:40.337Z,90.82
2018-02-19T04:59:07.920Z,90.68
2018-02-19T05:01:35.511Z,90.74
2018-02-19T05:04:03.134Z,90.80
2018-02-19T05:06:32.973Z,91.10
2018-02-19T05:09:01.422Z,91.34
2018-02-19T05:11:29.028Z,91.36
2018-02-19T05:13:56.633Z,91.30
2018-02-19T05:16:24.812Z,91.35
2018-02-19T05:18:53.600Z,91.64
2018-02-19T05:21:22.785Z,91.46
2018-02-19T05:23:51.185Z,91.58
2018-02-19T05:28:52.724Z,91.66
2018-02-19T05:31:22.108Z,91.63
2018-02-19T05:33:50.384Z,91.46
2018-02-19T05:36:18.143Z,91.20
2018-02-19T05:38:45.968Z,91.20
2018-02-19T05:41:14.721Z,91.27
2018-02-19T05:43:42.361Z,91.27
2018-02-19T05:46:10.080Z,91.48
2018-02-19T05:48:38.497Z,91.87
2018-02-19T05:51:06.898Z,92.06
2018-02-19T05:53:35.608Z,91.69
2018-02-19T05:56:03.215Z,91.54
2018-02-19T05:58:35.081Z,91.65
2018-02-19T06:01:02.950Z,91.68
2018-02-19T06:03:31.040Z,91.70
2018-02-19T06:05:58.671Z,91.33
2018-02-19T06:08:28.381Z,91.03
2018-02-19T06:10:55.994Z,90.85
2018-02-19T06:13:25.107Z,91.07
2018-02-19T06:15:53.517Z,91.09
2018-02-19T06:18:21.434Z,90.90
2018-02-19T06:20:49.060Z,90.69
2018-02-19T06:23:17.592Z,90.77
2018-02-19T06:25:45.827Z,90.82
2018-02-19T06:28:13.698Z,90.54
2018-02-19T06:30:43.551Z,90.65
2018-02-19T06:33:11.452Z,90.62
2018-02-19T06:35:39.193Z,90.77
2018-02-19T06:38:06.846Z,90.82
2018-02-19T06:40:34.778Z,90.56
2018-02-19T06:43:02.915Z,90.25
2018-02-19T06:45:37.774Z,90.22
2018-02-19T06:48:05.434Z,90.17
2018-02-19T06:50:33.094Z,90.27
2018-02-19T06:53:00.689Z,90.36
2018-02-19T06:55:28.328Z,90.45
2018-02-19T06:57:55.970Z,90.01
2018-02-19T07:00:23.569Z,89.94
2018-02-19T07:02:51.141Z,89.85
2018-02-19T07:05:18.760Z,89.62
2018-02-19T07:07:46.774Z,89.54
2018-02-19T07:10:14.369Z,89.38
2018-02-19T07:12:41.966Z,89.30
2018-02-19T07:15:09.566Z,89.56
2018-02-19T07:17:37.567Z,89.17
2018-02-19T07:20:05.215Z,88.75
2018-02-19T07:22:32.830Z,88.85
2018-02-19T07:25:01.473Z,88.31
2018-02-19T07:27:31.161Z,88.02
2018-02-19T07:30:01.188Z,88.17
2018-02-19T07:32:29.333Z,87.53
2018-02-19T07:34:56.961Z,87.75
2018-02-19T07:37:25.434Z,87.28
2018-02-19T07:39:53.156Z,87.35
2018-02-19T07:42:21.032Z,87.62
2018-02-19T07:44:51.028Z,87.23
2018-02-19T07:47:19.009Z,87.64
2018-02-19T07:49:46.618Z,87.01
2018-02-19T07:52:14.232Z,86.84
2018-02-19T07:54:41.870Z,86.82
2018-02-19T07:57:10.777Z,86.39
2018-02-19T07:59:39.302Z,86.43
2018-02-19T08:02:07.296Z,85.90
2018-02-19T08:04:34.876Z,85.64
2018-02-19T08:07:02.473Z,85.29
2018-02-19T08:09:30.126Z,84.16
2018-02-19T08:11:57.705Z,83.88
2018-02-19T08:14:25.439Z,83.38
2018-02-19T08:16:53.055Z,83.05
2018-02-19T08:19:20.721Z,84.08
2018-02-19T08:21:48.272Z,83.44
2018-02-19T08:24:15.871Z,83.69
2018-02-19T08:26:43.431Z,83.60
2018-02-19T08:29:12.451Z,83.80
2018-02-19T08:31:40.163Z,83.35
2018-02-19T08:34:07.795Z,83.49
2018-02-19T08:36:35.410Z,83.36
2018-02-19T08:39:03.048Z,83.45
2018-02-19T08:41:33.061Z,82.90
2018-02-19T08:44:01.055Z,82.94
2018-02-19T08:46:28.673Z,81.96
2018-02-19T08:48:57.279Z,82.34
2018-02-19T08:51:25.785Z,81.61
2018-02-19T08:53:53.578Z,80.54
2018-02-19T08:56:21.227Z,79.84
2018-02-19T08:58:49.029Z,79.71
2018-02-19T09:01:16.618Z,79.06
2018-02-19T09:03:44.229Z,77.90
2018-02-19T09:06:11.953Z,77.55
2018-02-19T09:08:39.556Z,78.31
2018-02-19T09:11:07.717Z,78.34
2018-02-19T09:13:35.624Z,77.69
2018-02-19T09:16:03.185Z,78.23
2018-02-19T09:18:30.806Z,77.26
2018-02-19T09:20:58.380Z,76.31
2018-02-19T09:23:27.027Z,76.57
2018-02-19T09:25:54.851Z,76.31
2018-02-19T09:28:24.947Z,74.86
2018-02-19T09:30:52.713Z,73.78
2018-02-19T09:33:20.357Z,73.49
2018-02-19T09:35:47.938Z,74.14
2018-02-19T09:38:15.730Z,73.00
2018-02-19T09:40:43.474Z,73.15
2018-02-19T09:43:12.095Z,71.69
2018-02-19T09:45:40.995Z,71.25
2018-02-19T09:48:08.609Z,72.21
2018-02-19T09:50:36.221Z,70.83
2018-02-19T09:53:04.008Z,71.71
2018-02-19T09:55:31.588Z,72.03
2018-02-19T09:57:59.193Z,72.49
2018-02-19T10:00:27.149Z,72.78
2018-02-19T10:02:54.805Z,70.64
2018-02-19T10:05:22.650Z,71.21
2018-02-19T10:07:50.331Z,69.57
2018-02-19T10:10:18.164Z,71.54
2018-02-19T10:12:45.855Z,69.97
2018-02-19T10:15:14.026Z,70.03
2018-02-19T10:17:41.816Z,71.36
2018-02-19T10:20:09.374Z,70.44
2018-02-19T10:22:36.950Z,70.16
2018-02-19T10:25:05.117Z,71.19
2018-02-19T10:27:33.032Z,70.96
2018-02-19T10:30:00.627Z,71.11
2018-02-19T10:32:28.212Z,68.98
2018-02-19T10:34:55.777Z,70.15
2018-02-19T10:37:23.801Z,70.14
2018-02-19T10:39:51.447Z,70.92
2018-02-19T10:42:19.006Z,71.45
2018-02-19T10:48:23.077Z,70.08
2018-02-19T10:50:51.100Z,71.71
2018-02-19T10:53:18.863Z,71.02
2018-02-19T10:55:46.510Z,71.49
2018-02-19T10:58:14.184Z,71.75
2018-02-19T11:00:46.547Z,71.89
2018-02-19T11:03:14.162Z,70.94
2018-02-19T11:05:41.724Z,71.23
2018-02-19T11:08:09.361Z,69.27
2018-02-19T11:10:36.938Z,69.62
2018-02-19T11:13:04.538Z,69.23
2018-02-19T11:15:32.355Z,67.68
2018-02-19T11:17:59.939Z,69.19
2018-02-19T11:20:27.586Z,68.81
2018-02-19T11:22:56.516Z,68.31
2018-02-19T11:25:34.048Z,68.55
2018-02-19T11:28:01.708Z,68.27
2018-02-19T11:30:29.315Z,69.11
2018-02-19T11:32:56.912Z,68.77
2018-02-19T11:35:24.614Z,70.55
2018-02-19T11:37:53.973Z,69.16
2018-02-19T11:40:26.809Z,70.14
2018-02-19T11:42:54.412Z,68.87
2018-02-19T11:45:22.043Z,69.64
2018-02-19T11:47:49.654Z,68.79
2018-02-19T11:50:18.211Z,69.20
2018-02-19T11:52:45.919Z,67.07
2018-02-19T11:55:13.582Z,67.60
2018-02-19T11:57:41.889Z,68.66
2018-02-19T12:00:09.483Z,68.87
2018-02-19T12:02:37.517Z,68.17
2018-02-19T12:05:05.269Z,68.05
2018-02-19T12:07:33.639Z,69.41
2018-02-19T12:10:01.293Z,69.79
2018-02-19T12:12:28.886Z,68.33
2018-02-19T12:14:56.492Z,68.05
2018-02-19T12:17:24.105Z,62.75
2018-02-19T12:19:51.704Z,58.98
2018-02-19T12:22:19.323Z,55.18
2018-02-19T12:24:47.769Z,52.85
2018-02-19T12:27:15.444Z,51.51
2018-02-19T12:29:43.018Z,48.17
2018-02-19T12:32:10.751Z,46.35
2018-02-19T12:34:38.341Z,48.70
2018-02-19T12:37:06.012Z,50.37
2018-02-19T12:39:33.818Z,50.36
2018-02-19T12:42:01.425Z,51.46
2018-02-19T12:44:29.616Z,52.12
2018-02-19T12:46:57.268Z,52.71
2018-02-19T12:49:24.913Z,52.23
2018-02-19T12:51:52.531Z,51.23
2018-02-19T12:54:20.145Z,50.11
2018-02-19T12:56:47.794Z,50.88
2018-02-19T12:59:15.726Z,51.94
2018-02-19T13:01:43.399Z,54.35
2018-02-19T13:04:11.392Z,55.39
2018-02-19T13:06:38.978Z,55.01
2018-02-19T13:09:07.216Z,53.20
2018-02-19T13:11:34.869Z,52.08
2018-02-19T13:14:02.581Z,52.84
2018-02-19T13:16:30.709Z,52.88
2018-02-19T13:18:58.649Z,51.70
2018-02-19T13:21:27.511Z,53.29
2018-02-19T13:23:55.180Z,52.06
2018-02-19T13:26:22.789Z,50.28
2018-02-19T13:28:50.455Z,52.25
2018-02-19T13:31:18.061Z,51.00
2018-02-19T13:33:45.848Z,47.62
2018-02-19T13:36:13.402Z,50.82
2018-02-19T13:38:41.007Z,47.77
2018-02-19T13:41:08.780Z,49.82
2018-02-19T13:43:36.601Z,49.61
2018-02-19T13:46:04.190Z,51.04
2018-02-19T13:48:31.795Z,48.36
2018-02-19T13:50:59.389Z,49.68
2018-02-19T13:53:26.967Z,49.48
2018-02-19T13:56:15.587Z,50.06
2018-02-19T13:58:43.182Z,50.97
2018-02-19T14:01:10.756Z,48.74
2018-02-19T14:03:38.340Z,49.44
2018-02-19T14:06:05.926Z,49.10
2018-02-19T14:08:33.620Z,48.83
2018-02-19T14:11:01.203Z,50.44
2018-02-19T14:13:29.549Z,53.27
2018-02-19T14:15:57.125Z,54.26
2018-02-19T14:18:24.709Z,51.85
2018-02-19T14:20:52.344Z,50.01
2018-02-19T14:23:19.900Z,50.38
2018-02-19T14:25:47.785Z,51.59
2018-02-19T14:28:15.444Z,52.42
2018-02-19T14:30:43.014Z,52.23
2018-02-19T14:33:12.326Z,53.07
2018-02-19T14:35:39.928Z,52.06
2018-02-19T14:38:07.541Z,52.02
2018-02-19T14:40:35.676Z,49.94
2018-02-19T14:43:03.280Z,52.50
2018-02-19T14:45:31.131Z,52.82
2018-02-19T14:47:58.739Z,53.30
2018-02-19T14:50:26.370Z,55.13
2018-02-19T14:52:53.961Z,55.07
2018-02-19T14:55:21.527Z,57.94
2018-02-19T14:57:49.151Z,59.42
2018-02-19T15:00:16.730Z,59.06
2018-02-19T15:02:44.356Z,60.01
2018-02-19T15:05:22.193Z,61.81
2018-02-19T15:07:56.878Z,61.94
2018-02-19T15:10:26.282Z,61.48
2018-02-19T15:12:53.854Z,62.41
2018-02-19T15:15:24.094Z,62.81
2018-02-19T15:17:52.028Z,64.48
2018-02-19T15:20:20.288Z,65.75
2018-02-19T15:22:50.669Z,67.08
2018-02-19T15:25:23.805Z,67.52
2018-02-19T15:27:52.786Z,68.25
2018-02-19T15:30:20.746Z,68.09
2018-02-19T15:32:48.391Z,68.99
2018-02-19T15:35:20.121Z,69.47
2018-02-19T15:37:49.571Z,69.92
2018-02-19T15:40:17.157Z,70.51
2018-02-19T15:42:56.910Z,71.11
2018-02-19T15:45:28.512Z,72.16
2018-02-19T15:50:36.980Z,73.36
2018-02-19T15:53:06.410Z,73.43
2018-02-19T15:55:39.048Z,72.97
2018-02-19T15:58:17.879Z,73.83
2018-02-19T16:00:52.874Z,73.83
2018-02-19T16:03:23.890Z,74.00
2018-02-19T16:05:53.087Z,75.04
2018-02-19T16:08:25.933Z,74.43
2018-02-19T16:11:01.696Z,74.58
2018-02-19T16:13:37.936Z,74.90
2018-02-19T16:16:05.560Z,75.08
2018-02-19T16:18:36.771Z,74.89
2018-02-19T16:21:04.412Z,74.81
2018-02-19T16:23:39.494Z,75.50
2018-02-19T16:26:07.452Z,76.05
2018-02-19T16:28:35.065Z,76.53
2018-02-19T16:31:06.298Z,77.34
2018-02-19T16:36:14.324Z,79.07
2018-02-19T16:38:44.415Z,79.33
2018-02-19T16:41:15.400Z,79.86
2018-02-19T16:43:45.326Z,80.40
2018-02-19T16:46:15.995Z,80.66
2018-02-19T16:48:47.128Z,80.51
2018-02-19T16:51:20.169Z,80.85
2018-02-19T16:53:49.278Z,81.50
2018-02-19T16:56:20.708Z,81.79
2018-02-19T16:58:58.277Z,82.13
2018-02-19T17:01:29.385Z,82.53
2018-02-19T17:03:57.829Z,82.70
2018-02-19T17:09:16.320Z,83.01
2018-02-19T17:14:23.406Z,83.09
2018-02-19T17:16:53.959Z,83.26
2018-02-19T17:19:23.340Z,84.15
2018-02-19T17:24:28.456Z,83.59
2018-02-19T17:26:57.601Z,83.44
2018-02-19T17:29:25.658Z,83.47
2018-02-19T17:31:53.835Z,83.76
2018-02-19T17:39:51.521Z,84.09
2018-02-19T17:42:26.550Z,84.70
2018-02-19T17:47:41.378Z,85.95
2018-02-19T17:50:09.294Z,85.87
2018-02-19T17:52:36.953Z,86.16
2018-02-19T17:55:06.306Z,86.04
2018-02-19T17:57:34.196Z,86.35
2018-02-19T18:00:01.859Z,86.12
2018-02-19T18:02:29.441Z,86.60
2018-02-19T18:04:57.085Z,86.23
2018-02-19T18:07:27.602Z,86.29
2018-02-19T18:09:55.360Z,86.94
2018-02-19T18:12:24.009Z,87.16
2018-02-19T18:14:52.548Z,87.80
2018-02-19T18:17:24.684Z,87.38
2018-02-19T18:19:52.356Z,87.49
2018-02-19T18:25:06.107Z,87.36
2018-02-19T18:27:33.762Z,87.50
2018-02-19T18:32:41.913Z,87.66
2018-02-19T18:35:09.563Z,87.79
2018-02-19T18:37:37.146Z,87.79
2018-02-19T18:40:04.753Z,87.95
2018-02-19T18:42:32.358Z,88.00
2018-02-19T18:45:00.000Z,88.20
2018-02-19T18:50:03.463Z,88.27
2018-02-19T18:52:32.233Z,88.37
2018-02-19T18:54:59.821Z,88.29
2018-02-19T18:57:27.423Z,88.14
2018-02-19T18:59:55.254Z,87.94
2018-02-19T19:02:22.851Z,87.80
2018-02-19T19:04:50.842Z,88.01
2018-02-19T19:07:30.119Z,87.83
2018-02-19T19:10:09.522Z,87.65
2018-02-19T19:12:37.134Z,87.58
2018-02-19T19:15:04.767Z,87.65
2018-02-19T19:17:32.358Z,87.44
2018-02-19T19:19:59.965Z,87.35
2018-02-19T19:22:27.601Z,87.33
2018-02-19T19:24:55.217Z,87.44
2018-02-19T19:27:22.838Z,87.47
2018-02-19T19:29:50.469Z,87.82
2018-02-19T19:32:18.074Z,87.42
2018-02-19T19:34:45.664Z,87.00
2018-02-19T19:37:13.253Z,86.99
2018-02-19T19:39:40.832Z,87.04
2018-02-19T19:42:08.455Z,87.08
2018-02-19T19:44:36.045Z,87.00
2018-02-19T19:47:03.694Z,87.04
2018-02-19T19:49:31.290Z,87.19
2018-02-19T19:51:58.897Z,87.01
2018-02-19T19:54:26.465Z,86.68
2018-02-19T19:56:54.042Z,86.49
2018-02-19T19:59:21.855Z,86.42
2018-02-19T20:01:49.491Z,86.61
2018-02-19T20:04:17.094Z,86.63
2018-02-19T20:06:44.846Z,86.72
2018-02-19T20:09:12.434Z,86.71
2018-02-19T20:11:40.021Z,86.37
2018-02-19T20:14:07.825Z,86.03
2018-02-19T20:16:35.416Z,86.14
2018-02-19T20:19:03.029Z,86.41
2018-02-19T20:21:30.647Z,86.57
2018-02-19T20:23:58.231Z,86.76
2018-02-19T20:26:25.835Z,86.90
2018-02-19T20:28:53.420Z,87.06
2018-02-19T20:31:21.084Z,87.02
2018-02-19T20:33:48.716Z,87.00
2018-02-19T20:36:16.331Z,86.98
2018-02-19T20:38:43.897Z,87.50
2018-02-19T20:41:11.516Z,87.91
2018-02-19T20:43:39.122Z,88.29
2018-02-19T20:46:06.689Z,88.13
2018-02-19T20:48:34.260Z,87.96
2018-02-19T20:51:01.856Z,88.24
2018-02-19T20:53:29.437Z,87.96
2018-02-19T20:55:57.043Z,88.00
2018-02-19T20:58:24.673Z,88.06
2018-02-19T21:00:52.282Z,87.74
2018-02-19T21:03:19.886Z,87.54
2018-02-19T21:05:48.182Z,86.18
2018-02-19T21:08:15.744Z,85.83
2018-02-19T21:10:43.349Z,85.89
2018-02-19T21:13:10.980Z,86.68
2018-02-19T21:15:38.586Z,86.97
2018-02-19T21:18:06.678Z,87.04
2018-02-19T21:20:34.262Z,87.07
2018-02-19T21:23:01.904Z,86.99
2018-02-19T21:25:30.508Z,87.07
2018-02-19T21:27:58.228Z,87.18
2018-02-19T21:30:25.860Z,87.07
2018-02-19T21:32:53.582Z,87.37
2018-02-19T21:35:21.199Z,87.54
2018-02-19T21:37:48.898Z,87.68
2018-02-19T21:40:16.486Z,87.78
2018-02-19T21:42:44.065Z,87.78
2018-02-19T21:45:11.772Z,88.13
2018-02-19T21:47:39.458Z,88.32
2018-02-19T21:50:07.134Z,88.05
2018-02-19T21:52:34.750Z,88.32
2018-02-19T21:55:02.392Z,88.35
2018-02-19T21:57:29.991Z,88.27
2018-02-19T21:59:57.920Z,88.17
2018-02-19T22:02:25.535Z,88.05
2018-02-19T22:07:33.980Z,89.14
2018-02-19T22:10:01.671Z,89.07
2018-02-19T22:12:29.311Z,89.16
2018-02-19T22:14:56.904Z,88.83
2018-02-19T22:17:24.606Z,89.15
2018-02-19T22:19:52.246Z,88.95
2018-02-19T22:22:19.860Z,88.85
2018-02-19T22:24:47.475Z,88.75
2018-02-19T22:27:15.213Z,88.88
2018-02-19T22:29:42.885Z,89.05
2018-02-19T22:32:10.921Z,89.18
2018-02-19T22:34:38.575Z,89.33
2018-02-19T22:37:06.507Z,89.31
2018-02-19T22:39:34.098Z,89.64
2018-02-19T22:42:01.725Z,89.65
2018-02-19T22:44:29.342Z,89.69
2018-02-19T22:46:56.909Z,89.68
2018-02-19T22:49:25.023Z,89.78
2018-02-19T22:51:52.648Z,90.05
2018-02-19T22:54:20.326Z,89.84
2018-02-19T22:56:47.967Z,89.85
2018-02-19T22:59:15.563Z,89.79
2018-02-19T23:01:45.679Z,89.82
2018-02-19T23:04:13.366Z,89.77
2018-02-19T23:06:42.266Z,89.71
2018-02-19T23:09:09.872Z,89.62
2018-02-19T23:11:38.469Z,89.52
2018-02-19T23:14:06.122Z,89.53
2018-02-19T23:16:36.288Z,89.58
2018-02-19T23:19:03.951Z,89.76
2018-02-19T23:21:33.300Z,89.43
2018-02-19T23:24:01.258Z,89.49
2018-02-19T23:26:28.874Z,89.40
2018-02-19T23:28:58.815Z,89.12
2018-02-19T23:31:29.027Z,89.24
2018-02-19T23:33:56.700Z,89.18
2018-02-19T23:36:24.307Z,89.30
2018-02-19T23:38:51.904Z,89.60
2018-02-19T23:41:19.534Z,89.78
2018-02-19T23:43:47.150Z,89.91
2018-02-19T23:46:14.765Z,89.90
2018-02-19T23:48:43.891Z,89.69
2018-02-19T23:51:12.290Z,89.72
2018-02-19T23:53:39.915Z,89.71
2018-02-19T23:56:07.556Z,89.74
2018-02-19T23:58:35.165Z,89.61
